createdAt,value
2022-11-29T00:03:19.475Z,24.40
2022-11-29T00:09:34.921Z,24.70
2022-11-29T00:15:45.303Z,24.90
2022-11-29T00:21:54.522Z,24.70
2022-11-29T00:28:07.120Z,24.50
2022-11-29T00:34:20.744Z,24.40
2022-11-29T00:40:31.786Z,24.30
2022-11-29T00:46:46.697Z,24.40
2022-11-29T00:53:02.991Z,24.70
2022-11-29T00:59:16.977Z,24.70
2022-11-29T01:05:29.031Z,24.40
2022-11-29T01:11:46.302Z,24.20
2022-11-29T01:17:58.494Z,24.30
2022-11-29T01:24:09.003Z,24.60
2022-11-29T01:30:21.994Z,24.60
2022-11-29T01:36:33.766Z,24.40
2022-11-29T01:42:44.727Z,24.20
2022-11-29T01:48:56.556Z,24.10
2022-11-29T01:55:10.051Z,24.00
2022-11-29T02:01:24.912Z,24.00
2022-11-29T02:07:39.975Z,23.90
2022-11-29T02:13:58.896Z,23.90
2022-11-29T02:20:40.558Z,23.90
2022-11-29T02:27:22.695Z,23.80
2022-11-29T02:34:03.213Z,23.70
2022-11-29T02:40:31.684Z,23.70
2022-11-29T02:46:50.167Z,23.60
2022-11-29T02:53:06.645Z,23.50
2022-11-29T02:59:20.258Z,23.50
2022-11-29T03:05:39.314Z,23.40
2022-11-29T03:11:56.489Z,23.40
2022-11-29T03:18:18.754Z,23.30
2022-11-29T03:24:34.224Z,23.30
2022-11-29T03:30:52.137Z,23.20
2022-11-29T03:37:09.490Z,23.20
2022-11-29T03:43:25.606Z,23.10
2022-11-29T03:49:40.329Z,23.00
2022-11-29T03:55:59.751Z,23.00
2022-11-29T04:02:50.105Z,23.00
2022-11-29T04:09:18.319Z,23.10
2022-11-29T04:16:07.102Z,22.90
2022-11-29T04:22:33.953Z,23.00
2022-11-29T04:29:14.690Z,22.90
2022-11-29T04:42:26.256Z,22.90
2022-11-29T04:48:53.538Z,22.80
2022-11-29T04:55:08.193Z,22.80
2022-11-29T05:01:29.929Z,22.80
2022-11-29T05:07:41.659Z,22.90
2022-11-29T05:13:56.584Z,22.70
2022-11-29T05:20:12.717Z,22.60
2022-11-29T05:26:24.878Z,22.60
2022-11-29T05:32:36.652Z,22.60
2022-11-29T05:39:03.443Z,22.70
2022-11-29T05:45:33.890Z,22.50
2022-11-29T05:51:49.767Z,22.50
2022-11-29T05:58:06.020Z,22.40
2022-11-29T06:04:22.005Z,22.50
2022-11-29T06:10:33.810Z,22.50
2022-11-29T06:16:53.936Z,22.30
2022-11-29T06:23:32.615Z,22.30
2022-11-29T06:29:49.975Z,22.30
2022-11-29T06:36:08.216Z,22.40
2022-11-29T06:42:21.585Z,22.30
2022-11-29T06:48:35.416Z,22.20
2022-11-29T06:55:00.688Z,22.10
2022-11-29T07:01:16.823Z,22.20
2022-11-29T07:07:37.489Z,22.30
2022-11-29T07:13:50.371Z,22.10
2022-11-29T07:20:08.051Z,22.00
2022-11-29T07:26:22.760Z,22.00
2022-11-29T07:32:35.694Z,22.00
2022-11-29T07:38:59.808Z,22.10
2022-11-29T07:45:19.656Z,22.00
2022-11-29T07:51:29.548Z,21.90
2022-11-29T07:57:38.223Z,21.80
2022-11-29T08:03:48.598Z,22.00
2022-11-29T08:09:59.588Z,21.90
2022-11-29T08:16:12.794Z,21.80
2022-11-29T08:22:27.433Z,21.70
2022-11-29T08:28:37.123Z,21.70
2022-11-29T08:34:50.400Z,21.90
2022-11-29T08:41:03.780Z,21.80
2022-11-29T08:47:29.550Z,21.60
2022-11-29T08:53:44.377Z,21.60
2022-11-29T08:59:56.863Z,21.60
2022-11-29T09:06:12.623Z,21.70
2022-11-29T09:12:26.420Z,21.60
2022-11-29T09:18:35.132Z,21.60
2022-11-29T09:24:48.016Z,21.90
2022-11-29T09:30:58.943Z,22.00
2022-11-29T09:37:12.764Z,21.80
2022-11-29T09:43:29.679Z,21.70
2022-11-29T09:49:53.363Z,21.60
2022-11-29T09:56:20.603Z,21.50
2022-11-29T10:02:35.973Z,21.70
2022-11-29T10:08:48.514Z,22.10
2022-11-29T10:15:04.603Z,22.00
2022-11-29T10:21:17.165Z,21.80
2022-11-29T10:27:32.941Z,21.70
2022-11-29T10:33:46.335Z,21.70
2022-11-29T10:39:59.691Z,21.60
2022-11-29T10:46:14.352Z,21.70
2022-11-29T10:52:30.433Z,22.00
2022-11-29T10:58:39.340Z,22.00
2022-11-29T11:04:50.990Z,21.80
2022-11-29T11:11:05.495Z,21.70
2022-11-29T11:17:27.023Z,21.60
2022-11-29T11:23:43.025Z,21.70
2022-11-29T11:29:58.920Z,22.00
2022-11-29T11:36:16.461Z,22.10
2022-11-29T11:42:43.684Z,21.90
2022-11-29T11:48:50.656Z,21.70
2022-11-29T11:55:03.023Z,21.60
2022-11-29T12:01:23.188Z,21.60
2022-11-29T12:08:06.635Z,21.90
2022-11-29T12:13:54.868Z,22.20
2022-11-29T12:20:28.982Z,22.40
2022-11-29T12:26:59.506Z,22.70
2022-11-29T12:33:09.796Z,22.90
2022-11-29T12:39:39.840Z,23.20
2022-11-29T12:45:53.164Z,23.40
2022-11-29T12:52:06.245Z,23.60
2022-11-29T12:58:21.708Z,23.80
2022-11-29T13:04:38.719Z,23.50
2022-11-29T13:11:00.360Z,23.50
2022-11-29T13:17:16.012Z,23.70
2022-11-29T13:24:00.443Z,24.00
2022-11-29T13:29:47.342Z,24.10
2022-11-29T13:36:05.935Z,23.90
2022-11-29T13:42:22.166Z,23.70
2022-11-29T13:48:42.968Z,23.90
2022-11-29T13:54:52.850Z,24.30
2022-11-29T14:01:07.989Z,24.30
2022-11-29T14:07:22.630Z,24.00
2022-11-29T14:13:36.292Z,23.80
2022-11-29T14:19:50.408Z,24.10
2022-11-29T14:26:29.322Z,24.40
2022-11-29T14:32:42.874Z,24.40
2022-11-29T14:38:58.478Z,24.30
2022-11-29T14:45:30.757Z,24.30
2022-11-29T14:51:47.965Z,24.30
2022-11-29T14:58:25.278Z,24.20
2022-11-29T15:04:40.907Z,24.30
2022-11-29T15:10:53.861Z,24.40
2022-11-29T15:17:19.598Z,24.10
2022-11-29T15:23:31.145Z,23.90
2022-11-29T15:29:43.288Z,24.00
2022-11-29T15:35:55.539Z,24.30
2022-11-29T15:42:09.917Z,24.20
2022-11-29T15:48:23.444Z,24.10
2022-11-29T15:54:39.349Z,23.90
2022-11-29T16:00:53.177Z,24.10
2022-11-29T16:07:08.108Z,24.40
2022-11-29T16:50:47.536Z,22.50
2022-11-29T16:57:01.936Z,23.60
2022-11-29T17:03:16.798Z,24.00
2022-11-29T17:09:31.455Z,24.00
2022-11-29T17:15:41.293Z,23.90
2022-11-29T17:21:53.036Z,23.80
2022-11-29T17:28:12.439Z,23.80
2022-11-29T17:34:26.591Z,24.30
2022-11-29T17:40:43.267Z,24.60
2022-11-29T17:46:56.879Z,24.40
2022-11-29T17:53:08.151Z,24.30
2022-11-29T17:59:23.828Z,24.10
2022-11-29T18:05:36.050Z,24.40
2022-11-29T18:11:51.964Z,24.60
2022-11-29T18:18:07.444Z,24.50
2022-11-29T18:24:20.057Z,24.30
2022-11-29T18:30:31.025Z,24.10
2022-11-29T18:36:45.550Z,24.00
2022-11-29T18:42:57.103Z,24.40
2022-11-29T18:49:13.395Z,24.70
2022-11-29T18:55:23.654Z,24.60
2022-11-29T19:01:38.952Z,24.30
2022-11-29T19:07:51.061Z,24.10
2022-11-29T19:14:05.628Z,24.10
2022-11-29T19:20:22.101Z,24.50
2022-11-29T19:26:39.547Z,24.60
2022-11-29T19:32:56.258Z,24.30
2022-11-29T19:39:04.633Z,24.10
2022-11-29T19:45:22.836Z,24.00
2022-11-29T19:51:37.356Z,24.40
2022-11-29T19:57:52.067Z,24.60
2022-11-29T20:04:05.199Z,24.60
2022-11-29T20:10:21.450Z,24.40
2022-11-29T20:16:31.794Z,24.20
2022-11-29T20:22:42.901Z,24.30
2022-11-29T20:28:57.785Z,24.50
2022-11-29T20:35:15.199Z,24.60
2022-11-29T20:41:25.667Z,24.40
2022-11-29T20:47:41.194Z,24.10
2022-11-29T20:53:55.363Z,24.00
2022-11-29T21:00:07.989Z,24.20
2022-11-29T21:06:20.458Z,24.50
2022-11-29T21:12:35.196Z,24.60
2022-11-29T21:18:52.428Z,24.50
2022-11-29T21:25:11.972Z,24.30
2022-11-29T21:31:22.855Z,24.40
2022-11-29T21:37:41.447Z,24.30
2022-11-29T21:44:09.233Z,24.60
2022-11-29T21:50:06.497Z,24.70
2022-11-29T21:56:19.365Z,24.60
2022-11-29T22:02:30.513Z,24.40
2022-11-29T22:08:41.656Z,24.40
2022-11-29T22:14:55.680Z,24.60
2022-11-29T22:21:11.655Z,24.90
2022-11-29T22:27:28.662Z,24.70
2022-11-29T22:33:40.520Z,24.50
2022-11-29T22:39:54.430Z,24.40
2022-11-29T22:46:12.231Z,24.40
2022-11-29T22:52:27.010Z,24.70
2022-11-29T22:58:38.732Z,24.90
2022-11-29T23:04:49.806Z,24.70
2022-11-29T23:11:04.677Z,24.50
2022-11-29T23:17:18.423Z,24.40
2022-11-29T23:23:31.507Z,24.40
2022-11-29T23:29:44.364Z,24.80
2022-11-29T23:35:56.289Z,25.10
2022-11-29T23:42:09.606Z,25.00
2022-11-29T23:48:23.191Z,24.70
2022-11-29T23:54:32.855Z,24.50
